sensor_id;sensor_type;location;lat;lon;timestamp;pressure;altitude;pressure_sealevel;temperature;humidity
45275;BME280;31019;43.780;25.948;2023-04-20T00:02:44;100660.56;;;11.21;100.00
45275;BME280;31019;43.780;25.948;2023-04-20T00:05:42;100651.56;;;11.22;100.00
45275;BME280;31019;43.780;25.948;2023-04-20T00:08:37;100641.63;;;11.04;100.00
45275;BME280;31019;43.780;25.948;2023-04-20T00:11:33;100639.56;;;11.06;100.00
45275;BME280;31019;43.780;25.948;2023-04-20T00:17:08;100640.28;;;10.82;100.00
45275;BME280;31019;43.780;25.948;2023-04-20T00:19:50;100638.09;;;10.65;100.00
45275;BME280;31019;43.780;25.948;2023-04-20T00:25:40;100636.84;;;10.61;100.00
45275;BME280;31019;43.780;25.948;2023-04-20T00:28:58;100625.22;;;10.55;100.00
45275;BME280;31019;43.780;25.948;2023-04-20T00:33:52;100624.00;;;10.58;100.00
45275;BME280;31019;43.780;25.948;2023-04-20T00:35:14;100621.16;;;10.46;100.00
45275;BME280;31019;43.780;25.948;2023-04-20T00:38:11;100629.47;;;10.70;100.00
45275;BME280;31019;43.780;25.948;2023-04-20T00:41:30;100618.69;;;10.51;100.00
45275;BME280;31019;43.780;25.948;2023-04-20T00:47:29;100628.47;;;10.64;100.00
45275;BME280;31019;43.780;25.948;2023-04-20T00:53:49;100626.22;;;10.68;100.00
45275;BME280;31019;43.780;25.948;2023-04-20T00:59:53;100633.84;;;10.44;100.00
45275;BME280;31019;43.780;25.948;2023-04-20T01:03:22;100637.31;;;10.45;100.00
45275;BME280;31019;43.780;25.948;2023-04-20T01:06:15;100630.53;;;10.49;100.00
45275;BME280;31019;43.780;25.948;2023-04-20T01:09:17;100638.09;;;10.52;100.00
45275;BME280;31019;43.780;25.948;2023-04-20T01:12:32;100623.41;;;10.49;100.00
45275;BME280;31019;43.780;25.948;2023-04-20T01:15:34;100620.56;;;10.38;100.00
45275;BME280;31019;43.780;25.948;2023-04-20T01:18:07;100616.28;;;10.37;100.00
45275;BME280;31019;43.780;25.948;2023-04-20T01:20:57;100618.13;;;10.23;100.00
45275;BME280;31019;43.780;25.948;2023-04-20T01:26:53;100605.03;;;10.15;100.00
45275;BME280;31019;43.780;25.948;2023-04-20T01:30:28;100609.53;;;10.07;100.00
45275;BME280;31019;43.780;25.948;2023-04-20T01:32:45;100610.75;;;9.98;100.00
45275;BME280;31019;43.780;25.948;2023-04-20T01:44:51;100603.41;;;10.20;100.00
45275;BME280;31019;43.780;25.948;2023-04-20T01:45:49;100599.34;;;10.11;100.00
45275;BME280;31019;43.780;25.948;2023-04-20T01:54:52;100592.16;;;10.45;100.00
45275;BME280;31019;43.780;25.948;2023-04-20T02:04:43;100586.25;;;10.16;100.00
45275;BME280;31019;43.780;25.948;2023-04-20T02:07:25;100593.63;;;10.27;100.00
45275;BME280;31019;43.780;25.948;2023-04-20T02:10:22;100597.09;;;10.28;100.00
45275;BME280;31019;43.780;25.948;2023-04-20T02:16:30;100600.13;;;10.25;100.00
45275;BME280;31019;43.780;25.948;2023-04-20T02:19:25;100596.66;;;10.24;100.00
45275;BME280;31019;43.780;25.948;2023-04-20T02:22:27;100604.03;;;10.29;100.00
45275;BME280;31019;43.780;25.948;2023-04-20T02:25:12;100596.66;;;10.24;100.00
45275;BME280;31019;43.780;25.948;2023-04-20T02:28:05;100599.75;;;10.15;100.00
45275;BME280;31019;43.780;25.948;2023-04-20T02:31:09;100600.34;;;9.97;100.00
45275;BME280;31019;43.780;25.948;2023-04-20T02:34:19;100588.09;;;10.09;100.00
45275;BME280;31019;43.780;25.948;2023-04-20T02:43:09;100602.78;;;10.18;100.00
45275;BME280;31019;43.780;25.948;2023-04-20T02:43:45;100599.34;;;10.11;100.00
45275;BME280;31019;43.780;25.948;2023-04-20T02:49:47;100602.59;;;10.13;100.00
45275;BME280;31019;43.780;25.948;2023-04-20T02:52:49;100595.25;;;10.08;100.00
45275;BME280;31019;43.780;25.948;2023-04-20T02:55:42;100607.50;;;10.23;100.00
45275;BME280;31019;43.780;25.948;2023-04-20T02:58:23;100609.94;;;10.18;100.00
45275;BME280;31019;43.780;25.948;2023-04-20T03:01:35;100599.75;;;10.08;100.00
45275;BME280;31019;43.780;25.948;2023-04-20T03:04:35;100601.78;;;10.13;100.00
45275;BME280;31019;43.780;25.948;2023-04-20T03:08:02;100593.41;;;10.16;100.00
45275;BME280;31019;43.780;25.948;2023-04-20T03:14:15;100614.44;;;10.11;100.00
45275;BME280;31019;43.780;25.948;2023-04-20T03:16:59;100608.31;;;10.10;100.00
45275;BME280;31019;43.780;25.948;2023-04-20T03:19:41;100612.59;;;9.98;100.00
45275;BME280;31019;43.780;25.948;2023-04-20T03:22:39;100616.69;;;10.47;100.00
45275;BME280;31019;43.780;25.948;2023-04-20T03:25:14;100618.53;;;9.93;100.00
45275;BME280;31019;43.780;25.948;2023-04-20T03:28:13;100618.94;;;10.23;100.00
45275;BME280;31019;43.780;25.948;2023-04-20T03:37:32;100621.16;;;10.06;100.00
45275;BME280;31019;43.780;25.948;2023-04-20T03:43:49;100616.06;;;9.98;100.00
45275;BME280;31019;43.780;25.948;2023-04-20T03:47:18;100615.25;;;9.91;100.00
45275;BME280;31019;43.780;25.948;2023-04-20T03:56:26;100620.75;;;10.09;100.00
45275;BME280;31019;43.780;25.948;2023-04-20T04:01:59;100628.09;;;10.07;100.00
45275;BME280;31019;43.780;25.948;2023-04-20T04:04:26;100632.78;;;10.19;100.00
45275;BME280;31019;43.780;25.948;2023-04-20T04:06:59;100631.97;;;10.25;100.00
45275;BME280;31019;43.780;25.948;2023-04-20T04:10:01;100625.44;;;10.07;100.00
45275;BME280;31019;43.780;25.948;2023-04-20T04:13:14;100612.41;;;9.93;100.00
45275;BME280;31019;43.780;25.948;2023-04-20T04:16:06;100624.66;;;9.94;100.00
45275;BME280;31019;43.780;25.948;2023-04-20T04:19:01;100631.16;;;10.24;100.00
45275;BME280;31019;43.780;25.948;2023-04-20T04:22:02;100615.47;;;10.29;100.00
45275;BME280;31019;43.780;25.948;2023-04-20T04:34:43;100640.19;;;10.30;100.00
45275;BME280;31019;43.780;25.948;2023-04-20T04:37:40;100645.50;;;10.30;100.00
45275;BME280;31019;43.780;25.948;2023-04-20T04:40:17;100639.38;;;10.29;100.00
45275;BME280;31019;43.780;25.948;2023-04-20T04:42:46;100640.09;;;10.70;100.00
45275;BME280;31019;43.780;25.948;2023-04-20T04:45:35;100647.28;;;10.49;100.00
45275;BME280;31019;43.780;25.948;2023-04-20T04:48:21;100646.28;;;10.37;100.00
45275;BME280;31019;43.780;25.948;2023-04-20T04:54:01;100656.47;;;10.60;100.00
45275;BME280;31019;43.780;25.948;2023-04-20T04:56:28;100655.59;;;10.86;100.00
45275;BME280;31019;43.780;25.948;2023-04-20T04:58:57;100663.03;;;11.22;100.00
45275;BME280;31019;43.780;25.948;2023-04-20T05:01:24;100664.03;;;10.43;100.00
45275;BME280;31019;43.780;25.948;2023-04-20T05:03:51;100659.53;;;10.44;100.00
45275;BME280;31019;43.780;25.948;2023-04-20T05:06:18;100658.75;;;10.43;100.00
45275;BME280;31019;43.780;25.948;2023-04-20T05:08:45;100658.34;;;10.33;100.00
45275;BME280;31019;43.780;25.948;2023-04-20T05:11:13;100661.38;;;10.63;100.00
45275;BME280;31019;43.780;25.948;2023-04-20T05:13:40;100668.31;;;10.58;100.00
45275;BME280;31019;43.780;25.948;2023-04-20T05:16:07;100658.47;;;11.75;100.00
45275;BME280;31019;43.780;25.948;2023-04-20T05:18:34;100668.97;;;11.18;100.00
45275;BME280;31019;43.780;25.948;2023-04-20T05:21:01;100669.56;;;11.65;100.00
45275;BME280;31019;43.780;25.948;2023-04-20T05:23:27;100659.72;;;10.75;100.00
45275;BME280;31019;43.780;25.948;2023-04-20T05:25:54;100662.34;;;10.82;100.00
45275;BME280;31019;43.780;25.948;2023-04-20T05:28:41;100655.56;;;10.99;100.00
45275;BME280;31019;43.780;25.948;2023-04-20T05:31:11;100654.91;;;11.11;100.00
45275;BME280;31019;43.780;25.948;2023-04-20T05:33:39;100655.63;;;10.73;100.00
45275;BME280;31019;43.780;25.948;2023-04-20T05:36:12;100649.94;;;11.21;100.00
45275;BME280;31019;43.780;25.948;2023-04-20T05:38:53;100668.09;;;10.72;100.00
45275;BME280;31019;43.780;25.948;2023-04-20T05:41:50;100660.66;;;10.94;100.00
45275;BME280;31019;43.780;25.948;2023-04-20T05:44:42;100671.22;;;11.21;100.00
45275;BME280;31019;43.780;25.948;2023-04-20T05:50:48;100688.91;;;11.85;100.00
45275;BME280;31019;43.780;25.948;2023-04-20T05:56:20;100679.34;;;12.34;100.00
45275;BME280;31019;43.780;25.948;2023-04-20T05:58:50;100677.66;;;12.58;100.00
45275;BME280;31019;43.780;25.948;2023-04-20T06:01:31;100674.91;;;12.47;100.00
45275;BME280;31019;43.780;25.948;2023-04-20T06:04:31;100692.41;;;12.79;100.00
45275;BME280;31019;43.780;25.948;2023-04-20T06:07:31;100687.91;;;11.41;100.00
45275;BME280;31019;43.780;25.948;2023-04-20T06:13:11;100695.91;;;11.73;100.00
45275;BME280;31019;43.780;25.948;2023-04-20T06:15:38;100698.25;;;11.56;100.00
45275;BME280;31019;43.780;25.948;2023-04-20T06:21:39;100713.94;;;11.26;100.00
45275;BME280;31019;43.780;25.948;2023-04-20T06:24:33;100707.09;;;11.50;100.00
45275;BME280;31019;43.780;25.948;2023-04-20T06:27:29;100709.63;;;11.32;100.00
45275;BME280;31019;43.780;25.948;2023-04-20T06:30:31;100700.47;;;11.21;100.00
45275;BME280;31019;43.780;25.948;2023-04-20T06:33:54;100700.00;;;11.76;100.00
45275;BME280;31019;43.780;25.948;2023-04-20T06:36:45;100703.31;;;11.71;100.00
45275;BME280;31019;43.780;25.948;2023-04-20T06:39:39;100700.50;;;11.53;100.00
45275;BME280;31019;43.780;25.948;2023-04-20T06:42:22;100709.69;;;11.63;100.00
45275;BME280;31019;43.780;25.948;2023-04-20T06:45:17;100708.63;;;11.71;100.00
45275;BME280;31019;43.780;25.948;2023-04-20T06:51:37;100717.34;;;11.85;100.00
45275;BME280;31019;43.780;25.948;2023-04-20T06:54:30;100712.34;;;11.63;100.00
45275;BME280;31019;43.780;25.948;2023-04-20T06:57:01;100709.25;;;11.66;100.00
45275;BME280;31019;43.780;25.948;2023-04-20T07:03:46;100710.31;;;11.59;100.00
45275;BME280;31019;43.780;25.948;2023-04-20T07:16:31;100716.00;;;12.07;100.00
45275;BME280;31019;43.780;25.948;2023-04-20T07:20:04;100723.47;;;11.40;100.00
45275;BME280;31019;43.780;25.948;2023-04-20T07:22:48;100718.81;;;11.81;100.00
45275;BME280;31019;43.780;25.948;2023-04-20T07:25:42;100722.34;;;12.06;100.00
45275;BME280;31019;43.780;25.948;2023-04-20T07:28:36;100727.31;;;12.28;100.00
45275;BME280;31019;43.780;25.948;2023-04-20T07:35:01;100722.88;;;11.45;100.00
45275;BME280;31019;43.780;25.948;2023-04-20T07:37:42;100719.69;;;12.06;100.00
45275;BME280;31019;43.780;25.948;2023-04-20T07:40:28;100736.31;;;12.02;100.00
45275;BME280;31019;43.780;25.948;2023-04-20T07:43:35;100738.69;;;11.72;100.00
45275;BME280;31019;43.780;25.948;2023-04-20T07:46:25;100738.38;;;11.55;100.00
45275;BME280;31019;43.780;25.948;2023-04-20T07:49:52;100731.94;;;11.24;100.00
45275;BME280;31019;43.780;25.948;2023-04-20T07:52:34;100723.53;;;11.27;100.00
45275;BME280;31019;43.780;25.948;2023-04-20T07:55:35;100741.50;;;11.90;100.00
45275;BME280;31019;43.780;25.948;2023-04-20T07:58:26;100734.19;;;11.72;100.00
45275;BME280;31019;43.780;25.948;2023-04-20T08:01:13;100737.41;;;11.42;100.00
45275;BME280;31019;43.780;25.948;2023-04-20T08:04:17;100735.47;;;11.63;100.00
45275;BME280;31019;43.780;25.948;2023-04-20T08:07:48;100734.94;;;11.86;100.00
45275;BME280;31019;43.780;25.948;2023-04-20T08:10:47;100739.84;;;11.89;100.00
45275;BME280;31019;43.780;25.948;2023-04-20T08:16:29;100728.16;;;11.97;100.00
45275;BME280;31019;43.780;25.948;2023-04-20T08:19:24;100734.09;;;11.92;100.00
45275;BME280;31019;43.780;25.948;2023-04-20T08:22:19;100726.59;;;12.14;100.00
45275;BME280;31019;43.780;25.948;2023-04-20T08:25:30;100725.97;;;11.87;100.00
45275;BME280;31019;43.780;25.948;2023-04-20T08:28:38;100739.19;;;12.25;100.00
45275;BME280;31019;43.780;25.948;2023-04-20T08:31:25;100735.75;;;11.93;100.00
45275;BME280;31019;43.780;25.948;2023-04-20T08:34:13;100730.50;;;12.11;100.00
45275;BME280;31019;43.780;25.948;2023-04-20T08:36:51;100734.81;;;11.74;100.00
45275;BME280;31019;43.780;25.948;2023-04-20T08:39:57;100725.72;;;11.88;100.00
45275;BME280;31019;43.780;25.948;2023-04-20T08:46:26;100730.03;;;12.21;100.00
45275;BME280;31019;43.780;25.948;2023-04-20T08:50:09;100733.41;;;12.35;100.00
45275;BME280;31019;43.780;25.948;2023-04-20T08:52:40;100732.91;;;12.20;100.00
45275;BME280;31019;43.780;25.948;2023-04-20T08:55:21;100736.50;;;12.32;100.00
45275;BME280;31019;43.780;25.948;2023-04-20T08:58:01;100727.59;;;12.45;100.00
45275;BME280;31019;43.780;25.948;2023-04-20T09:00:59;100722.00;;;12.53;100.00
45275;BME280;31019;43.780;25.948;2023-04-20T09:07:15;100720.13;;;12.97;100.00
45275;BME280;31019;43.780;25.948;2023-04-20T09:10:03;100730.13;;;13.20;100.00
45275;BME280;31019;43.780;25.948;2023-04-20T09:12:46;100726.06;;;13.36;100.00
45275;BME280;31019;43.780;25.948;2023-04-20T09:18:49;100726.09;;;13.96;100.00
45275;BME280;31019;43.780;25.948;2023-04-20T09:21:34;100715.03;;;13.81;100.00
45275;BME280;31019;43.780;25.948;2023-04-20T09:24:49;100712.06;;;13.70;100.00
45275;BME280;31019;43.780;25.948;2023-04-20T09:27:53;100729.81;;;13.95;100.00
45275;BME280;31019;43.780;25.948;2023-04-20T09:30:47;100727.03;;;14.67;100.00
45275;BME280;31019;43.780;25.948;2023-04-20T09:33:53;100712.72;;;14.73;100.00
45275;BME280;31019;43.780;25.948;2023-04-20T09:36:49;100721.72;;;13.71;100.00
45275;BME280;31019;43.780;25.948;2023-04-20T09:39:58;100714.84;;;15.64;100.00
45275;BME280;31019;43.780;25.948;2023-04-20T09:42:46;100714.06;;;15.92;100.00
45275;BME280;31019;43.780;25.948;2023-04-20T09:45:34;100708.84;;;15.56;100.00
45275;BME280;31019;43.780;25.948;2023-04-20T09:48:04;100720.78;;;15.66;100.00
45275;BME280;31019;43.780;25.948;2023-04-20T09:50:45;100715.22;;;15.96;100.00
45275;BME280;31019;43.780;25.948;2023-04-20T09:53:13;100706.91;;;15.00;100.00
45275;BME280;31019;43.780;25.948;2023-04-20T09:55:44;100708.56;;;14.77;100.00
45275;BME280;31019;43.780;25.948;2023-04-20T09:58:12;100723.13;;;15.22;100.00
45275;BME280;31019;43.780;25.948;2023-04-20T10:00:40;100714.72;;;15.42;100.00
45275;BME280;31019;43.780;25.948;2023-04-20T10:03:07;100714.91;;;15.52;100.00
45275;BME280;31019;43.780;25.948;2023-04-20T10:05:35;100717.19;;;14.68;100.00
45275;BME280;31019;43.780;25.948;2023-04-20T10:08:04;100717.63;;;15.40;100.00
45275;BME280;31019;43.780;25.948;2023-04-20T10:10:48;100708.00;;;15.27;100.00
45275;BME280;31019;43.780;25.948;2023-04-20T10:13:16;100703.63;;;14.39;100.00
45275;BME280;31019;43.780;25.948;2023-04-20T10:15:44;100699.88;;;14.58;100.00
45275;BME280;31019;43.780;25.948;2023-04-20T10:18:16;100705.34;;;15.16;100.00
45275;BME280;31019;43.780;25.948;2023-04-20T10:20:43;100707.38;;;14.85;100.00
45275;BME280;31019;43.780;25.948;2023-04-20T10:23:10;100695.69;;;15.26;100.00
45275;BME280;31019;43.780;25.948;2023-04-20T10:25:39;100690.78;;;15.35;100.00
45275;BME280;31019;43.780;25.948;2023-04-20T10:28:08;100703.16;;;15.53;100.00
45275;BME280;31019;43.780;25.948;2023-04-20T10:30:36;100693.44;;;16.09;100.00
45275;BME280;31019;43.780;25.948;2023-04-20T10:33:13;100691.34;;;16.45;100.00
45275;BME280;31019;43.780;25.948;2023-04-20T10:35:45;100682.34;;;15.03;100.00
45275;BME280;31019;43.780;25.948;2023-04-20T10:38:12;100685.03;;;16.34;100.00
45275;BME280;31019;43.780;25.948;2023-04-20T11:14:56;100674.94;;;19.48;100.00
45275;BME280;31019;43.780;25.948;2023-04-20T11:17:31;100663.06;;;17.37;100.00
45275;BME280;31019;43.780;25.948;2023-04-20T11:20:04;100655.75;;;18.19;100.00
45275;BME280;31019;43.780;25.948;2023-04-20T11:22:35;100657.22;;;18.37;100.00
45275;BME280;31019;43.780;25.948;2023-04-20T11:25:03;100654.84;;;19.76;100.00
45275;BME280;31019;43.780;25.948;2023-04-20T11:27:31;100655.44;;;19.05;100.00
45275;BME280;31019;43.780;25.948;2023-04-20T11:29:59;100651.97;;;17.82;100.00
45275;BME280;31019;43.780;25.948;2023-04-20T11:32:30;100652.91;;;18.73;100.00
45275;BME280;31019;43.780;25.948;2023-04-20T11:34:59;100647.00;;;18.76;100.00
45275;BME280;31019;43.780;25.948;2023-04-20T11:37:26;100647.53;;;20.18;100.00
45275;BME280;31019;43.780;25.948;2023-04-20T11:40:00;100634.84;;;20.23;100.00
45275;BME280;31019;43.780;25.948;2023-04-20T11:42:29;100638.41;;;19.83;100.00
45275;BME280;31019;43.780;25.948;2023-04-20T11:44:57;100634.50;;;20.76;100.00
45275;BME280;31019;43.780;25.948;2023-04-20T11:47:26;100628.59;;;20.64;100.00
45275;BME280;31019;43.780;25.948;2023-04-20T11:49:53;100636.75;;;19.61;100.00
45275;BME280;31019;43.780;25.948;2023-04-20T11:52:20;100620.88;;;19.90;100.00
45275;BME280;31019;43.780;25.948;2023-04-20T11:54:46;100623.53;;;20.26;100.00
45275;BME280;31019;43.780;25.948;2023-04-20T11:57:14;100622.56;;;18.45;100.00
45275;BME280;31019;43.780;25.948;2023-04-20T11:59:41;100622.22;;;19.73;100.00
45275;BME280;31019;43.780;25.948;2023-04-20T12:02:12;100624.66;;;19.89;100.00
45275;BME280;31019;43.780;25.948;2023-04-20T12:04:40;100616.25;;;19.60;100.00
45275;BME280;31019;43.780;25.948;2023-04-20T12:07:07;100608.94;;;20.38;100.00
45275;BME280;31019;43.780;25.948;2023-04-20T12:09:34;100610.94;;;20.97;100.00
45275;BME280;31019;43.780;25.948;2023-04-20T12:12:02;100605.50;;;19.96;100.00
45275;BME280;31019;43.780;25.948;2023-04-20T12:14:29;100608.28;;;21.31;100.00
45275;BME280;31019;43.780;25.948;2023-04-20T12:16:57;100592.44;;;21.14;100.00
45275;BME280;31019;43.780;25.948;2023-04-20T12:19:24;100594.13;;;22.42;100.00
45275;BME280;31019;43.780;25.948;2023-04-20T12:21:53;100596.31;;;20.28;100.00
45275;BME280;31019;43.780;25.948;2023-04-20T12:24:19;100594.75;;;21.76;100.00
45275;BME280;31019;43.780;25.948;2023-04-20T12:26:46;100587.81;;;21.64;100.00
45275;BME280;31019;43.780;25.948;2023-04-20T12:29:16;100581.59;;;20.75;100.00
45275;BME280;31019;43.780;25.948;2023-04-20T12:31:46;100584.72;;;20.97;100.00
45275;BME280;31019;43.780;25.948;2023-04-20T12:34:13;100589.31;;;19.55;100.00
45275;BME280;31019;43.780;25.948;2023-04-20T12:36:40;100592.59;;;19.67;100.00
45275;BME280;31019;43.780;25.948;2023-04-20T12:42:34;100584.25;;;18.70;100.00
45275;BME280;31019;43.780;25.948;2023-04-20T12:45:17;100581.53;;;18.13;100.00
45275;BME280;31019;43.780;25.948;2023-04-20T12:57:55;100586.75;;;18.82;100.00
45275;BME280;31019;43.780;25.948;2023-04-20T13:01:00;100605.13;;;18.05;100.00
45275;BME280;31019;43.780;25.948;2023-04-20T13:07:40;100621.78;;;15.83;100.00
45275;BME280;31019;43.780;25.948;2023-04-20T13:10:08;100631.16;;;15.11;100.00
45275;BME280;31019;43.780;25.948;2023-04-20T13:12:34;100639.50;;;14.51;100.00
45275;BME280;31019;43.780;25.948;2023-04-20T13:15:03;100615.59;;;14.20;100.00
45275;BME280;31019;43.780;25.948;2023-04-20T13:17:33;100628.59;;;14.29;100.00
45275;BME280;31019;43.780;25.948;2023-04-20T13:19:59;100641.72;;;14.42;100.00
45275;BME280;31019;43.780;25.948;2023-04-20T13:22:27;100627.22;;;14.26;100.00
45275;BME280;31019;43.780;25.948;2023-04-20T13:24:53;100632.03;;;13.94;100.00
45275;BME280;31019;43.780;25.948;2023-04-20T13:27:20;100627.50;;;13.94;100.00
45275;BME280;31019;43.780;25.948;2023-04-20T13:29:47;100620.50;;;13.70;100.00
45275;BME280;31019;43.780;25.948;2023-04-20T13:32:15;100615.31;;;13.75;100.00
45275;BME280;31019;43.780;25.948;2023-04-20T13:34:42;100618.91;;;13.39;100.00
45275;BME280;31019;43.780;25.948;2023-04-20T13:37:09;100613.84;;;13.49;100.00
45275;BME280;31019;43.780;25.948;2023-04-20T13:42:53;100607.06;;;13.77;100.00
45275;BME280;31019;43.780;25.948;2023-04-20T13:45:46;100605.91;;;13.72;100.00
45275;BME280;31019;43.780;25.948;2023-04-20T13:48:43;100604.38;;;13.77;100.00
45275;BME280;31019;43.780;25.948;2023-04-20T13:51:44;100606.38;;;13.81;100.00
45275;BME280;31019;43.780;25.948;2023-04-20T13:54:47;100601.97;;;13.75;100.00
45275;BME280;31019;43.780;25.948;2023-04-20T13:57:33;100585.69;;;13.77;100.00
45275;BME280;31019;43.780;25.948;2023-04-20T14:00:00;100596.53;;;13.93;100.00
45275;BME280;31019;43.780;25.948;2023-04-20T14:02:28;100592.72;;;13.17;100.00
45275;BME280;31019;43.780;25.948;2023-04-20T14:05:17;100584.38;;;13.44;100.00
45275;BME280;31019;43.780;25.948;2023-04-20T14:07:44;100578.84;;;13.57;100.00
45275;BME280;31019;43.780;25.948;2023-04-20T14:10:25;100584.56;;;13.72;100.00
45275;BME280;31019;43.780;25.948;2023-04-20T14:12:52;100587.47;;;13.71;100.00
45275;BME280;31019;43.780;25.948;2023-04-20T14:15:21;100580.59;;;13.63;100.00
45275;BME280;31019;43.780;25.948;2023-04-20T14:17:48;100574.00;;;14.13;100.00
45275;BME280;31019;43.780;25.948;2023-04-20T14:20:17;100578.53;;;14.24;100.00
45275;BME280;31019;43.780;25.948;2023-04-20T14:22:44;100578.19;;;14.32;100.00
45275;BME280;31019;43.780;25.948;2023-04-20T14:25:10;100585.28;;;14.62;100.00
45275;BME280;31019;43.780;25.948;2023-04-20T14:27:37;100590.25;;;15.10;100.00
45275;BME280;31019;43.780;25.948;2023-04-20T14:30:05;100588.88;;;15.25;100.00
45275;BME280;31019;43.780;25.948;2023-04-20T14:32:33;100573.50;;;15.77;100.00
45275;BME280;31019;43.780;25.948;2023-04-20T14:35:00;100589.16;;;15.69;100.00
45275;BME280;31019;43.780;25.948;2023-04-20T14:37:29;100574.41;;;15.83;100.00
45275;BME280;31019;43.780;25.948;2023-04-20T14:39:56;100583.00;;;15.68;100.00
45275;BME280;31019;43.780;25.948;2023-04-20T14:42:23;100574.78;;;16.09;100.00
45275;BME280;31019;43.780;25.948;2023-04-20T14:44:49;100577.25;;;16.54;100.00
45275;BME280;31019;43.780;25.948;2023-04-20T14:47:16;100586.31;;;17.14;100.00
45275;BME280;31019;43.780;25.948;2023-04-20T14:52:58;100588.25;;;16.75;100.00
45275;BME280;31019;43.780;25.948;2023-04-20T14:53:47;100580.34;;;16.85;100.00
45275;BME280;31019;43.780;25.948;2023-04-20T14:56:29;100585.72;;;16.85;100.00
45275;BME280;31019;43.780;25.948;2023-04-20T14:59:35;100605.16;;;17.46;100.00
45275;BME280;31019;43.780;25.948;2023-04-20T15:02:08;100599.19;;;16.90;100.00
45275;BME280;31019;43.780;25.948;2023-04-20T15:04:35;100606.84;;;17.52;100.00
45275;BME280;31019;43.780;25.948;2023-04-20T15:07:07;100608.22;;;17.28;100.00
45275;BME280;31019;43.780;25.948;2023-04-20T15:10:06;100598.84;;;17.08;100.00
45275;BME280;31019;43.780;25.948;2023-04-20T15:13:01;100609.13;;;16.72;100.00
45275;BME280;31019;43.780;25.948;2023-04-20T15:16:06;100613.97;;;16.92;100.00
45275;BME280;31019;43.780;25.948;2023-04-20T15:18:54;100624.25;;;16.79;100.00
45275;BME280;31019;43.780;25.948;2023-04-20T15:21:44;100610.97;;;16.11;100.00
45275;BME280;31019;43.780;25.948;2023-04-20T15:28:25;100615.94;;;15.86;100.00
45275;BME280;31019;43.780;25.948;2023-04-20T15:31:06;100615.41;;;15.26;100.00
45275;BME280;31019;43.780;25.948;2023-04-20T15:37:10;100611.88;;;15.38;100.00
45275;BME280;31019;43.780;25.948;2023-04-20T15:37:49;100610.28;;;14.96;100.00
45275;BME280;31019;43.780;25.948;2023-04-20T15:40:48;100622.97;;;15.01;100.00
45275;BME280;31019;43.780;25.948;2023-04-20T15:44:01;100617.88;;;14.76;100.00
45275;BME280;31019;43.780;25.948;2023-04-20T15:47:06;100625.81;;;14.47;100.00
45275;BME280;31019;43.780;25.948;2023-04-20T15:50:02;100620.34;;;14.42;100.00
45275;BME280;31019;43.780;25.948;2023-04-20T15:52:43;100619.41;;;14.72;100.00
45275;BME280;31019;43.780;25.948;2023-04-20T15:55:30;100629.44;;;14.64;100.00
45275;BME280;31019;43.780;25.948;2023-04-20T15:57:58;100615.69;;;14.73;100.00
45275;BME280;31019;43.780;25.948;2023-04-20T16:00:25;100621.50;;;14.46;100.00
45275;BME280;31019;43.780;25.948;2023-04-20T16:02:53;100626.06;;;14.57;100.00
45275;BME280;31019;43.780;25.948;2023-04-20T16:09:21;100621.97;;;14.43;100.00
45275;BME280;31019;43.780;25.948;2023-04-20T16:12:19;100624.53;;;14.38;100.00
45275;BME280;31019;43.780;25.948;2023-04-20T16:15:35;100623.81;;;14.31;100.00
45275;BME280;31019;43.780;25.948;2023-04-20T16:18:29;100608.84;;;14.30;100.00
45275;BME280;31019;43.780;25.948;2023-04-20T16:21:19;100594.94;;;14.04;100.00
45275;BME280;31019;43.780;25.948;2023-04-20T16:24:21;100590.75;;;14.08;100.00
45275;BME280;31019;43.780;25.948;2023-04-20T16:34:14;100598.84;;;13.78;100.00
45275;BME280;31019;43.780;25.948;2023-04-20T16:36:55;100623.53;;;13.73;100.00
45275;BME280;31019;43.780;25.948;2023-04-20T16:51:56;100629.63;;;13.50;100.00
45275;BME280;31019;43.780;25.948;2023-04-20T16:54:23;100633.66;;;13.41;100.00
45275;BME280;31019;43.780;25.948;2023-04-20T16:56:51;100633.66;;;13.41;100.00
45275;BME280;31019;43.780;25.948;2023-04-20T16:59:17;100627.94;;;13.26;100.00
45275;BME280;31019;43.780;25.948;2023-04-20T17:01:44;100626.47;;;13.23;100.00
45275;BME280;31019;43.780;25.948;2023-04-20T17:04:14;100631.16;;;13.28;100.00
45275;BME280;31019;43.780;25.948;2023-04-20T17:06:41;100639.09;;;13.16;100.00
45275;BME280;31019;43.780;25.948;2023-04-20T17:09:09;100639.84;;;13.05;100.00
45275;BME280;31019;43.780;25.948;2023-04-20T17:11:36;100653.72;;;12.95;100.00
45275;BME280;31019;43.780;25.948;2023-04-20T17:14:04;100645.13;;;12.93;100.00
45275;BME280;31019;43.780;25.948;2023-04-20T17:16:31;100655.69;;;12.81;100.00
45275;BME280;31019;43.780;25.948;2023-04-20T17:18:58;100652.59;;;12.84;100.00
45275;BME280;31019;43.780;25.948;2023-04-20T17:21:25;100664.06;;;12.85;100.00
45275;BME280;31019;43.780;25.948;2023-04-20T17:30:34;100663.25;;;12.66;100.00
45275;BME280;31019;43.780;25.948;2023-04-20T17:33:01;100662.09;;;12.55;100.00
45275;BME280;31019;43.780;25.948;2023-04-20T17:35:28;100670.06;;;12.62;100.00